createdAt,value
2018-09-04T00:00:26.560Z,17.1
2018-09-04T00:01:17.231Z,17.1
2018-09-04T00:02:07.273Z,17.1
2018-09-04T00:02:57.113Z,17.1
2018-09-04T00:03:46.906Z,17.1
2018-09-04T00:04:37.720Z,17.1
2018-09-04T00:05:27.543Z,17.1
2018-09-04T00:06:17.330Z,17.1
2018-09-04T00:07:07.394Z,17.1
2018-09-04T00:07:57.725Z,17.1
2018-09-04T00:08:48.044Z,17.1
2018-09-04T00:09:37.866Z,17.1
2018-09-04T00:10:27.989Z,17.1
2018-09-04T00:11:17.999Z,17.1
2018-09-04T00:12:08.055Z,17.1
2018-09-04T00:31:39.297Z,16.8
2018-09-04T00:32:29.879Z,16.8
2018-09-04T00:33:19.659Z,16.8
2018-09-04T00:34:09.961Z,16.8
2018-09-04T00:34:59.792Z,16.8
2018-09-04T00:35:50.126Z,16.7
2018-09-04T00:36:40.248Z,16.7
2018-09-04T00:37:29.676Z,16.7
2018-09-04T00:38:20.316Z,16.7
2018-09-04T00:39:10.388Z,16.6
2018-09-04T00:40:00.172Z,16.6
2018-09-04T00:40:50.221Z,16.6
2018-09-04T00:41:40.535Z,16.6
2018-09-04T00:42:30.653Z,16.6
2018-09-04T00:43:20.690Z,16.6
2018-09-04T00:44:10.175Z,16.6
2018-09-04T00:45:00.843Z,16.6
2018-09-04T00:45:50.605Z,16.5
2018-09-04T00:46:40.970Z,16.5
2018-09-04T00:47:31.030Z,16.5
2018-09-04T00:48:21.077Z,16.5
2018-09-04T00:49:10.580Z,16.4
2018-09-04T00:50:00.943Z,16.4
2018-09-04T00:50:50.980Z,16.4
2018-09-04T00:51:41.592Z,16.4
2018-09-04T00:52:31.131Z,16.4
2018-09-04T00:53:20.892Z,16.4
2018-09-04T00:54:11.252Z,16.4
2018-09-04T00:55:01.310Z,16.3
2018-09-04T00:55:51.652Z,16.3
2018-09-04T00:56:41.162Z,16.3
2018-09-04T00:57:31.758Z,16.3
2018-09-04T00:58:21.604Z,16.3
2018-09-04T00:59:11.654Z,16.3
2018-09-04T01:00:01.816Z,16.3
2018-09-04T01:00:52.045Z,16.3
2018-09-04T01:01:41.827Z,16.3
2018-09-04T01:02:32.195Z,16.3
2018-09-04T01:03:22.237Z,16.2
2018-09-04T01:04:12.310Z,16.2
2018-09-04T01:05:02.393Z,16.2
2018-09-04T01:05:52.444Z,16.2
2018-09-04T01:06:42.509Z,16.1
2018-09-04T01:07:32.811Z,16.2
2018-09-04T01:08:22.352Z,16.1
2018-09-04T01:09:12.119Z,16.1
2018-09-04T01:10:02.764Z,16.1
2018-09-04T01:10:52.531Z,16.1
2018-09-04T01:11:42.609Z,16.1
2018-09-04T01:12:32.667Z,16.1
2018-09-04T01:13:23.028Z,16.1
2018-09-04T01:14:13.101Z,16.1
2018-09-04T01:15:02.854Z,16.1
2018-09-04T01:15:53.205Z,16.1
2018-09-04T01:16:42.708Z,16.1
2018-09-04T01:17:33.022Z,16.1
2018-09-04T01:18:23.406Z,16.1
2018-09-04T01:19:13.180Z,16.1
2018-09-04T01:20:03.545Z,16.1
2018-09-04T01:20:53.589Z,16.1
2018-09-04T01:21:43.680Z,16.1
2018-09-04T01:22:33.744Z,16.1
2018-09-04T01:23:23.233Z,16.1
2018-09-04T01:24:13.866Z,16.1
2018-09-04T01:25:03.920Z,16.1
2018-09-04T01:25:53.683Z,16.1
2018-09-04T01:26:43.755Z,16.1
2018-09-04T01:27:33.810Z,16.1
2018-09-04T01:28:23.883Z,16.1
2018-09-04T01:29:14.240Z,16.1
2018-09-04T01:30:04.323Z,16.1
2018-09-04T01:30:54.080Z,16.1
2018-09-04T01:31:44.440Z,16.1
2018-09-04T01:32:34.223Z,16.1
2018-09-04T01:33:24.586Z,16.1
2018-09-04T01:34:14.631Z,16.1
2018-09-04T01:35:04.698Z,16.1
2018-09-04T01:35:54.762Z,16.1
2018-09-04T01:36:44.533Z,16.1
2018-09-04T01:37:34.905Z,16.1
2018-09-04T01:38:24.667Z,16.1
2018-09-04T01:39:15.525Z,16.1
2018-09-04T01:40:05.085Z,16.1
2018-09-04T01:40:54.585Z,16.1
2018-09-04T01:41:44.936Z,16.1
2018-09-04T01:42:35.287Z,16.1
2018-09-04T01:43:25.043Z,16.1
2018-09-04T01:44:15.115Z,16
2018-09-04T01:45:05.469Z,16.1
2018-09-04T01:45:55.526Z,16
2018-09-04T01:46:45.596Z,16
2018-09-04T01:47:35.655Z,16
2018-09-04T01:48:25.701Z,16
2018-09-04T01:49:15.217Z,16
2018-09-04T01:50:05.856Z,16
2018-09-04T01:50:56.166Z,16
2018-09-04T01:51:45.697Z,16
2018-09-04T01:52:36.053Z,16
2018-09-04T01:53:26.106Z,15.9
2018-09-04T01:54:15.884Z,15.9
2018-09-04T01:55:06.254Z,15.9
2018-09-04T01:55:56.017Z,15.9
2018-09-04T01:56:46.086Z,15.9
2018-09-04T01:57:35.881Z,15.9
2018-09-04T01:58:26.754Z,15.9
2018-09-04T01:59:16.559Z,15.9
2018-09-04T02:00:05.778Z,15.9
2018-09-04T02:00:56.670Z,15.9
2018-09-04T02:01:46.169Z,15.8
2018-09-04T02:02:36.826Z,15.8
2018-09-04T02:03:26.661Z,15.8
2018-09-04T02:04:16.375Z,15.8
2018-09-04T02:05:07.016Z,15.8
2018-09-04T02:05:57.090Z,15.8
2018-09-04T02:06:47.133Z,15.8
2018-09-04T02:07:36.930Z,15.8
2018-09-04T02:08:26.653Z,15.8
2018-09-04T02:09:17.081Z,15.8
2018-09-04T02:10:07.423Z,15.7
2018-09-04T02:10:57.465Z,15.7
2018-09-04T02:11:47.793Z,15.7
2018-09-04T02:12:37.297Z,15.6
2018-09-04T02:13:27.908Z,15.6
2018-09-04T02:14:17.455Z,15.6
2018-09-04T02:15:07.487Z,15.6
2018-09-04T02:15:57.859Z,15.6
2018-09-04T02:16:48.177Z,15.6
2018-09-04T02:17:37.690Z,15.6
2018-09-04T02:18:27.472Z,15.6
2018-09-04T02:19:18.108Z,15.6
2018-09-04T02:20:07.869Z,15.6
2018-09-04T02:20:58.228Z,15.6
2018-09-04T02:21:48.007Z,15.5
2018-09-04T02:22:37.797Z,15.5
2018-09-04T02:23:28.130Z,15.5
2018-09-04T02:24:18.210Z,15.5
2018-09-04T02:25:08.904Z,15.5
2018-09-04T02:25:58.634Z,15.5
2018-09-04T02:26:48.687Z,15.4
2018-09-04T02:27:38.476Z,15.4
2018-09-04T02:28:28.829Z,15.4
2018-09-04T02:29:18.886Z,15.4
2018-09-04T02:30:08.661Z,15.4
2018-09-04T02:30:59.007Z,15.4
2018-09-04T02:31:49.074Z,15.4
2018-09-04T02:32:38.581Z,15.4
2018-09-04T02:33:29.216Z,15.4
2018-09-04T02:34:19.261Z,15.4
2018-09-04T02:35:09.051Z,15.4
2018-09-04T02:35:59.151Z,15.4
2018-09-04T02:36:49.454Z,15.4
2018-09-04T02:37:38.969Z,15.4
2018-09-04T02:38:29.596Z,15.4
2018-09-04T02:39:19.627Z,15.4
2018-09-04T02:40:09.464Z,15.4
2018-09-04T02:40:59.511Z,15.4
2018-09-04T02:41:49.837Z,15.3
2018-09-04T02:42:39.349Z,15.3
2018-09-04T02:43:29.694Z,15.3
2018-09-04T02:44:19.753Z,15.3
2018-09-04T02:45:09.793Z,15.3
2018-09-04T02:46:00.168Z,15.3
2018-09-04T02:46:50.238Z,15.3
2018-09-04T02:47:40.027Z,15.3
2018-09-04T02:48:30.363Z,15.3
2018-09-04T02:49:20.140Z,15.3
2018-09-04T02:50:10.749Z,15.3
2018-09-04T02:51:00.543Z,15.3
2018-09-04T02:51:50.323Z,15.3
2018-09-04T02:52:40.943Z,15.2
2018-09-04T02:53:30.753Z,15.3
2018-09-04T02:54:20.240Z,15.2
2018-09-04T02:55:10.303Z,15.2
2018-09-04T02:56:00.924Z,15.2
2018-09-04T02:56:51.013Z,15.2
2018-09-04T02:57:40.790Z,15.2
2018-09-04T02:58:31.120Z,15.2
2018-09-04T02:59:21.210Z,15.2
2018-09-04T03:00:11.515Z,15.2
2018-09-04T03:01:01.328Z,15.2
2018-09-04T03:01:51.135Z,15.2
2018-09-04T03:02:41.175Z,15.2
2018-09-04T03:03:31.514Z,15.2
2018-09-04T03:04:21.580Z,15.2
2018-09-04T03:05:11.642Z,15.2
2018-09-04T03:06:01.423Z,15.2
2018-09-04T03:06:51.765Z,15.2
2018-09-04T03:07:41.845Z,15.2
2018-09-04T03:08:31.611Z,15.2
2018-09-04T03:09:21.390Z,15.2
2018-09-04T03:10:11.725Z,15.3
2018-09-04T03:11:01.821Z,15.3
2018-09-04T03:11:52.217Z,15.3
2018-09-04T03:12:42.251Z,15.3
2018-09-04T03:13:32.469Z,15.3
2018-09-04T03:14:22.065Z,15.3
2018-09-04T03:15:12.131Z,15.3
2018-09-04T03:16:02.187Z,15.3
2018-09-04T03:16:52.275Z,15.3
2018-09-04T03:17:42.621Z,15.3
2018-09-04T03:18:32.381Z,15.3
2018-09-04T03:19:22.448Z,15.3
2018-09-04T03:20:12.519Z,15.3
2018-09-04T03:21:02.915Z,15.3
2018-09-04T03:21:52.699Z,15.3
2018-09-04T03:22:42.739Z,15.3
2018-09-04T03:23:32.493Z,15.3
2018-09-04T03:24:23.124Z,15.3
2018-09-04T03:25:13.738Z,15.3
2018-09-04T03:26:03.306Z,15.3
2018-09-04T03:26:53.038Z,15.4
2018-09-04T03:27:43.103Z,15.3
2018-09-04T03:28:33.164Z,15.4
2018-09-04T03:29:23.526Z,15.3
2018-09-04T03:30:13.585Z,15.4
2018-09-04T03:31:03.948Z,15.4
2018-09-04T03:31:53.715Z,15.4
2018-09-04T03:32:43.209Z,15.4
2018-09-04T03:33:33.548Z,15.4
2018-09-04T03:34:24.156Z,15.4
2018-09-04T03:35:13.963Z,15.4
2018-09-04T03:36:03.974Z,15.4
2018-09-04T03:36:53.805Z,15.4
2018-09-04T03:37:44.143Z,15.4
2018-09-04T03:38:34.200Z,15.4
2018-09-04T03:39:23.975Z,15.4
2018-09-04T03:40:14.344Z,15.5
2018-09-04T03:41:04.639Z,15.4
2018-09-04T03:41:54.200Z,15.5
2018-09-04T03:42:44.265Z,15.5
2018-09-04T03:43:34.604Z,15.5
2018-09-04T03:44:24.241Z,15.5
2018-09-04T03:45:14.460Z,15.6
2018-09-04T03:46:04.227Z,15.5
2018-09-04T03:46:54.819Z,15.6
2018-09-04T03:47:44.943Z,15.6
2018-09-04T03:48:34.994Z,15.6
2018-09-04T03:49:24.999Z,15.6
2018-09-04T03:50:14.824Z,15.6
2018-09-04T03:51:04.986Z,15.6
2018-09-04T03:51:54.967Z,15.6
2018-09-04T03:52:45.315Z,15.6
2018-09-04T03:53:34.791Z,15.6
2018-09-04T03:54:25.439Z,15.6
2018-09-04T03:55:15.221Z,15.6
2018-09-04T03:56:05.822Z,15.6
2018-09-04T03:56:55.634Z,15.6
2018-09-04T03:57:45.419Z,15.6
2018-09-04T03:58:35.481Z,15.7
2018-09-04T03:59:25.833Z,15.6
2018-09-04T04:00:15.300Z,15.6
2018-09-04T04:01:05.666Z,15.6
2018-09-04T04:01:55.728Z,15.6
2018-09-04T04:02:45.502Z,15.6
2018-09-04T04:03:35.583Z,15.6
2018-09-04T04:04:26.231Z,15.6
2018-09-04T04:05:16.273Z,15.6
2018-09-04T04:06:06.041Z,15.6
2018-09-04T04:06:56.388Z,15.6
2018-09-04T04:07:46.186Z,15.6
2018-09-04T04:08:36.250Z,15.6
2018-09-04T04:09:26.608Z,15.6
2018-09-04T04:10:16.383Z,15.6
2018-09-04T04:11:06.446Z,15.6
2018-09-04T04:11:57.207Z,15.6
2018-09-04T04:12:46.853Z,15.6
2018-09-04T04:13:36.631Z,15.6
2018-09-04T04:14:27.026Z,15.6
2018-09-04T04:15:17.039Z,15.6
2018-09-04T04:16:07.113Z,15.6
2018-09-04T04:16:56.591Z,15.6
2018-09-04T04:17:46.935Z,15.6
2018-09-04T04:18:37.300Z,15.6
2018-09-04T04:19:27.372Z,15.6
2018-09-04T04:20:17.684Z,15.6
2018-09-04T04:21:07.495Z,15.6
2018-09-04T04:21:57.549Z,15.6
2018-09-04T04:22:47.629Z,15.6
2018-09-04T04:23:37.687Z,15.7
2018-09-04T04:24:27.749Z,15.7
2018-09-04T04:25:17.822Z,15.7
2018-09-04T04:26:07.879Z,15.7
2018-09-04T04:26:57.944Z,15.7
2018-09-04T04:27:48.012Z,15.7
2018-09-04T04:28:37.779Z,15.7
2018-09-04T04:29:27.544Z,15.8
2018-09-04T04:30:18.198Z,15.8
2018-09-04T04:31:08.257Z,15.8
2018-09-04T04:31:58.040Z,15.8
2018-09-04T04:32:48.303Z,15.8
2018-09-04T04:33:38.471Z,15.8
2018-09-04T04:34:28.248Z,15.8
2018-09-04T04:35:18.299Z,15.8
2018-09-04T04:36:08.644Z,15.8
2018-09-04T04:36:58.139Z,15.9
2018-09-04T04:37:48.774Z,15.9
2018-09-04T04:38:38.869Z,15.9
2018-09-04T04:39:28.606Z,15.9
2018-09-04T04:40:18.686Z,15.9
2018-09-04T04:41:09.018Z,15.9
2018-09-04T04:41:58.835Z,15.9
2018-09-04T04:42:49.166Z,15.9
2018-09-04T05:00:28.316Z,16.3
2018-09-04T05:01:17.412Z,16.3
2018-09-04T05:02:07.775Z,16.3
2018-09-04T05:02:57.829Z,16.3
2018-09-04T05:03:47.618Z,16.4
2018-09-04T05:04:37.963Z,16.4
2018-09-04T05:05:28.412Z,16.4
2018-09-04T05:06:18.389Z,16.4
2018-09-04T05:07:07.847Z,16.4
2018-09-04T05:07:58.219Z,16.5
2018-09-04T05:08:48.004Z,16.6
2018-09-04T05:09:38.342Z,16.6
2018-09-04T05:10:28.101Z,16.6
2018-09-04T05:11:19.306Z,16.7
2018-09-04T05:12:08.521Z,16.7
2018-09-04T05:12:58.581Z,16.7
2018-09-04T05:13:48.371Z,16.8
2018-09-04T05:14:38.741Z,16.8
2018-09-04T05:15:28.778Z,16.8
2018-09-04T05:16:18.836Z,16.9
2018-09-04T05:17:08.336Z,16.9
2018-09-04T05:17:58.699Z,16.9
2018-09-04T05:20:28.886Z,17.1
2018-09-04T05:21:19.228Z,17.1
2018-09-04T05:22:09.048Z,17.1
2018-09-04T05:22:59.351Z,17.2
2018-09-04T05:23:49.140Z,17.2
2018-09-04T05:24:39.208Z,17.3
2018-09-04T05:25:29.540Z,17.3
2018-09-04T05:26:19.601Z,17.3
2018-09-04T05:27:09.672Z,17.3
2018-09-04T05:27:59.445Z,17.4
2018-09-04T05:28:50.055Z,17.4
2018-09-04T05:29:39.893Z,17.4
2018-09-04T05:30:29.650Z,17.4
2018-09-04T05:31:20.003Z,17.4
2018-09-04T05:32:09.776Z,17.5
2018-09-04T05:32:59.555Z,17.6
2018-09-04T05:33:49.902Z,17.6
2018-09-04T05:34:40.252Z,17.6
2018-09-04T05:35:30.320Z,17.7
2018-09-04T05:36:20.636Z,17.8
2018-09-04T05:37:10.168Z,17.8
2018-09-04T05:38:00.227Z,17.9
2018-09-04T05:38:50.836Z,17.9
2018-09-04T05:39:40.630Z,17.9
2018-09-04T05:40:30.422Z,18
2018-09-04T05:41:20.206Z,18.1
2018-09-04T05:42:10.855Z,18.1
2018-09-04T05:43:00.919Z,18.1
2018-09-04T05:43:51.225Z,18.2
2018-09-04T05:44:40.832Z,18.3
2018-09-04T05:45:31.174Z,18.3
2018-09-04T05:46:21.160Z,18.3
2018-09-04T05:47:11.229Z,18.4
2018-09-04T05:48:00.995Z,18.4
2018-09-04T05:48:51.077Z,18.5
2018-09-04T05:49:41.083Z,18.5
2018-09-04T05:50:31.482Z,18.6
2018-09-04T05:51:21.272Z,18.6
2018-09-04T05:53:01.684Z,18.8
2018-09-04T05:53:51.731Z,18.8
2018-09-04T05:54:41.515Z,18.9
2018-09-04T05:55:31.857Z,18.9
2018-09-04T05:56:21.928Z,19
2018-09-04T05:57:11.695Z,19.1
2018-09-04T05:58:02.068Z,19.2
2018-09-04T05:58:52.138Z,19.3
2018-09-04T05:59:42.178Z,19.3
2018-09-04T06:00:32.255Z,19.4
2018-09-04T06:01:22.323Z,19.5
2018-09-04T06:02:12.383Z,19.6
2018-09-04T06:03:02.437Z,19.6
2018-09-04T06:03:52.524Z,19.8
2018-09-04T06:04:42.576Z,19.8
2018-09-04T06:05:32.681Z,19.9
2018-09-04T06:06:22.407Z,20.1
2018-09-04T06:07:12.479Z,20.1
2018-09-04T06:08:02.835Z,20.3
2018-09-04T06:08:52.606Z,20.4
2018-09-04T06:09:42.388Z,20.5
2018-09-04T06:10:32.739Z,20.6
2018-09-04T06:11:23.083Z,20.8
2018-09-04T06:12:12.566Z,20.9
2018-09-04T06:13:03.520Z,21
2018-09-04T06:14:43.336Z,21.2
2018-09-04T06:15:33.112Z,21.3
2018-09-04T06:16:22.701Z,21.5
2018-09-04T06:17:13.543Z,21.6
2018-09-04T06:18:03.593Z,21.7
2018-09-04T06:18:53.378Z,21.9
2018-09-04T06:19:43.716Z,22
2018-09-04T06:20:33.808Z,22.1
2018-09-04T06:21:23.851Z,22.2
2018-09-04T06:22:13.623Z,22.3
2018-09-04T06:23:04.265Z,22.4
2018-09-04T06:23:53.776Z,22.6
2018-09-04T06:24:44.116Z,22.7
2018-09-04T06:25:34.193Z,22.8
2018-09-04T06:26:24.254Z,22.9
2018-09-04T06:27:14.302Z,23
2018-09-04T06:28:04.626Z,23.1
2018-09-04T06:28:54.143Z,23.3
2018-09-04T06:29:44.312Z,23.3
2018-09-04T06:30:34.561Z,23.4
2018-09-04T06:31:24.634Z,23.5
2018-09-04T06:32:14.698Z,23.6
2018-09-04T06:33:05.050Z,23.7
2018-09-04T06:33:55.044Z,23.8
2018-09-04T06:34:44.309Z,23.9
2018-09-04T06:35:35.289Z,23.9
2018-09-04T06:36:25.027Z,24.1
2018-09-04T06:37:15.046Z,24.1
2018-09-04T06:38:05.155Z,24.2
2018-09-04T06:38:55.241Z,24.3
2018-09-04T06:39:44.989Z,24.4
2018-09-04T06:40:34.840Z,24.5
2018-09-04T06:41:25.401Z,24.6
2018-09-04T06:42:15.736Z,24.6
2018-09-04T06:43:05.228Z,24.8
2018-09-04T06:43:55.555Z,24.8
2018-09-04T06:44:45.646Z,24.9
2018-09-04T06:45:35.716Z,25
2018-09-04T06:46:26.038Z,25.1
2018-09-04T06:47:15.589Z,25.3
2018-09-04T06:48:05.918Z,25.4
2018-09-04T06:48:55.990Z,25.5
2018-09-04T06:49:46.033Z,25.6
2018-09-04T06:50:36.086Z,25.8
2018-09-04T06:51:26.155Z,25.9
2018-09-04T06:52:15.932Z,26
2018-09-04T06:53:06.550Z,26.1
2018-09-04T06:53:56.355Z,26.2
2018-09-04T06:54:46.774Z,26.3
2018-09-04T06:55:36.483Z,26.4
2018-09-04T06:56:26.606Z,26.6
2018-09-04T06:57:16.620Z,26.7
2018-09-04T06:58:06.676Z,26.9
2018-09-04T06:58:56.455Z,27
2018-09-04T06:59:46.812Z,27.2
2018-09-04T07:00:36.575Z,27.4
2018-09-04T07:01:26.657Z,27.6
2018-09-04T07:03:07.072Z,28.1
2018-09-04T07:03:57.142Z,28.3
2018-09-04T07:04:47.504Z,28.5
2018-09-04T07:05:37.254Z,28.6
2018-09-04T07:06:27.057Z,28.8
2018-09-04T07:07:17.381Z,28.9
2018-09-04T07:08:07.449Z,29.1
2018-09-04T07:08:57.516Z,29.3
2018-09-04T07:09:47.647Z,29.4
2018-09-04T07:10:37.657Z,29.6
2018-09-04T07:11:27.971Z,29.9
2018-09-04T07:12:17.785Z,30.1
2018-09-04T07:13:07.851Z,30.3
2018-09-04T07:13:57.896Z,30.6
2018-09-04T07:14:47.969Z,30.8
2018-09-04T07:15:37.804Z,31.1
2018-09-04T07:16:28.351Z,31.3
2018-09-04T07:17:18.165Z,31.6
2018-09-04T07:18:08.239Z,31.8
2018-09-04T07:18:58.324Z,31.9
2018-09-04T07:19:48.066Z,32.1
2018-09-04T07:20:38.416Z,32.3
2018-09-04T07:21:28.499Z,32.4
2018-09-04T07:22:18.546Z,32.6
2018-09-04T07:23:08.324Z,32.7
2018-09-04T07:23:58.895Z,32.9
2018-09-04T07:24:49.033Z,33.1
2018-09-04T07:25:38.804Z,33.3
2018-09-04T07:26:29.113Z,33.6
2018-09-04T07:27:18.948Z,33.8
2018-09-04T07:28:09.065Z,34.1
2018-09-04T07:28:58.813Z,34.4
2018-09-04T07:29:49.133Z,34.7
2018-09-04T07:30:38.901Z,35
2018-09-04T07:31:29.298Z,35.3
2018-09-04T07:32:19.030Z,35.5
2018-09-04T07:33:09.383Z,35.8
2018-09-04T07:33:59.165Z,35.9
2018-09-04T07:34:49.513Z,36.1
2018-09-04T07:35:39.575Z,36.3
2018-09-04T07:36:29.300Z,36.4
2018-09-04T07:37:19.417Z,36.6
2018-09-04T07:38:09.775Z,36.7
2018-09-04T07:38:59.832Z,36.8
2018-09-04T07:39:49.887Z,36.9
2018-09-04T07:40:40.037Z,36.9
2018-09-04T07:41:30.091Z,37
2018-09-04T07:42:19.790Z,37.1
2018-09-04T07:43:09.857Z,37.2
2018-09-04T07:44:00.210Z,37.3
2018-09-04T07:44:49.713Z,37.6
2018-09-04T07:45:40.040Z,37.9
2018-09-04T07:46:30.444Z,38.4
2018-09-04T07:47:20.474Z,39.3
2018-09-04T07:48:10.532Z,40.3
2018-09-04T07:49:00.347Z,41.4
2018-09-04T07:49:50.657Z,42.6
2018-09-04T07:50:40.714Z,43.7
2018-09-04T07:51:30.779Z,44.6
2018-09-04T07:52:20.841Z,45.4
2018-09-04T07:53:10.637Z,45.8
2018-09-04T07:54:00.696Z,46.2
2018-09-04T07:54:51.056Z,46.5
2018-09-04T07:55:41.099Z,46.8
2018-09-04T07:56:31.154Z,47.2
2018-09-04T07:57:21.256Z,47.8
2018-09-04T07:58:11.306Z,48.4
2018-09-04T07:59:01.369Z,49.1
2018-09-04T07:59:51.424Z,49.5
2018-09-04T08:00:41.204Z,50.6
2018-09-04T08:01:31.826Z,52.3
2018-09-04T08:02:21.344Z,51.9
2018-09-04T08:03:11.679Z,50.8
2018-09-04T08:04:01.751Z,47.9
2018-09-04T08:04:51.527Z,45.2
2018-09-04T08:05:41.589Z,43.9
2018-09-04T08:06:31.945Z,43.4
2018-09-04T08:07:22.271Z,43.8
2018-09-04T08:08:12.075Z,44.6
2018-09-04T08:09:01.576Z,45.6
2018-09-04T08:09:51.915Z,46.9
2018-09-04T08:10:42.284Z,48.4
2018-09-04T08:11:32.327Z,49.8
2018-09-04T08:12:22.653Z,51.7
2018-09-04T08:13:12.462Z,53.9
2018-09-04T08:14:02.527Z,53.1
2018-09-04T08:15:42.652Z,50.4
2018-09-04T08:16:32.735Z,48.6
2018-09-04T08:17:22.491Z,47.8
2018-09-04T08:18:12.840Z,47.5
2018-09-04T08:19:02.938Z,47.8
2018-09-04T08:19:52.690Z,48.6
2018-09-04T08:20:43.343Z,50.2
2018-09-04T08:21:33.117Z,53.1
2018-09-04T08:22:23.173Z,54.1
2018-09-04T08:23:12.951Z,54.9
2018-09-04T09:14:58.131Z,65.9
2018-09-04T09:15:47.981Z,66
2018-09-04T09:16:38.120Z,66.1
2018-09-04T09:17:27.774Z,66.2
2018-09-04T09:18:18.398Z,66.3
2018-09-04T09:19:08.199Z,66.4
2018-09-04T09:19:58.309Z,66.5
2018-09-04T09:20:48.299Z,66.6
2018-09-04T09:21:38.105Z,66.8
2018-09-04T09:22:28.424Z,66.9
2018-09-04T09:23:18.776Z,67.1
2018-09-04T09:24:08.288Z,67.1
2018-09-04T09:24:58.871Z,67.3
2018-09-04T09:25:48.932Z,67.4
2018-09-04T09:26:39.001Z,67.4
2018-09-04T09:27:28.264Z,67.4
2018-09-04T09:28:18.891Z,67.5
2018-09-04T09:29:08.941Z,67.5
2018-09-04T09:29:59.033Z,67.6
2018-09-04T09:30:49.093Z,67.6
2018-09-04T09:31:39.163Z,67.6
2018-09-04T09:32:28.942Z,67.6
2018-09-04T09:33:19.295Z,67.7
2018-09-04T09:34:09.587Z,67.7
2018-09-04T09:34:59.533Z,67.8
2018-09-04T09:35:49.492Z,67.8
2018-09-04T09:36:40.274Z,67.9
2018-09-04T09:37:29.622Z,67.9
2018-09-04T09:38:19.395Z,67.9
2018-09-04T09:39:10.000Z,67.9
2018-09-04T09:39:59.543Z,67.9
2018-09-04T09:40:49.584Z,67.9
2018-09-04T09:41:40.190Z,68
2018-09-04T09:42:29.725Z,68.1
2018-09-04T09:43:20.057Z,68.2
2018-09-04T09:44:10.425Z,68.3
2018-09-04T09:45:00.207Z,68.4
2018-09-04T09:45:50.255Z,68.5
2018-09-04T09:46:40.335Z,68.6
2018-09-04T09:47:30.638Z,68.7
2018-09-04T09:48:20.165Z,68.7
2018-09-04T09:49:10.785Z,68.8
2018-09-04T09:50:00.317Z,68.8
2018-09-04T09:50:51.496Z,68.9
2018-09-04T09:51:40.715Z,68.9
2018-09-04T09:52:30.795Z,69
2018-09-04T09:53:22.341Z,69.1
2018-09-04T09:54:10.914Z,69.3
2018-09-04T09:55:00.982Z,69.3
2018-09-04T09:55:50.774Z,69.4
2018-09-04T09:56:41.197Z,69.6
2018-09-04T09:57:31.026Z,69.6
2018-09-04T09:58:20.996Z,69.7
2018-09-04T09:59:11.301Z,69.8
2018-09-04T10:00:02.002Z,69.8
2018-09-04T10:00:51.515Z,69.9
2018-09-04T10:01:41.667Z,70
2018-09-04T10:02:31.677Z,70.1
2018-09-04T10:03:21.627Z,70.1
2018-09-04T10:04:12.517Z,70.3
2018-09-04T10:05:01.746Z,70.3
2018-09-04T10:05:51.529Z,70.4
2018-09-04T10:06:41.903Z,70.4
2018-09-04T10:07:32.660Z,70.5
2018-09-04T10:08:22.131Z,70.6
2018-09-04T10:09:11.847Z,70.6
2018-09-04T10:10:02.312Z,70.7
2018-09-04T10:10:51.923Z,70.8
2018-09-04T10:11:41.977Z,70.8
2018-09-04T10:12:32.301Z,70.9
2018-09-04T10:13:22.366Z,70.9
2018-09-04T10:14:12.446Z,70.9
2018-09-04T10:15:17.726Z,70.9
2018-09-04T10:15:52.306Z,70.9
2018-09-04T10:16:42.608Z,70.9
2018-09-04T10:17:32.741Z,71
2018-09-04T10:18:22.481Z,71
2018-09-04T10:19:12.543Z,71
2018-09-04T10:20:03.304Z,71.1
2018-09-04T10:20:53.505Z,71.1
2018-09-04T10:21:43.307Z,71.1
2018-09-04T10:22:32.810Z,71.1
2018-09-04T10:23:22.932Z,71.1
2018-09-04T10:24:13.218Z,71.1
2018-09-04T10:25:02.812Z,71.1
2018-09-04T10:25:53.662Z,71.1
2018-09-04T10:26:43.670Z,71.1
2018-09-04T10:27:33.737Z,71.1
2018-09-04T10:28:23.557Z,71.1
2018-09-04T10:29:13.340Z,71.2
2018-09-04T10:30:03.417Z,71.3
2018-09-04T10:30:54.010Z,71.3
2018-09-04T10:31:43.520Z,71.3
2018-09-04T10:32:34.121Z,71.3
2018-09-04T10:33:23.694Z,71.3
2018-09-04T10:34:13.713Z,71.3
2018-09-04T10:35:04.077Z,71.3
2018-09-04T10:35:54.395Z,71.4
2018-09-04T10:36:44.194Z,71.4
2018-09-04T10:37:34.700Z,71.6
2018-09-04T10:38:25.249Z,71.7
2018-09-04T16:15:49.974Z,31.7
2018-09-04T16:16:39.719Z,31.6
2018-09-04T16:17:30.050Z,31.5
2018-09-04T16:18:20.137Z,31.4
2018-09-04T16:19:10.195Z,31.3
2018-09-04T16:20:00.566Z,31.2
2018-09-04T16:20:50.686Z,31.1
2018-09-04T16:21:40.695Z,31
2018-09-04T16:22:30.483Z,30.9
2018-09-04T16:23:20.826Z,30.8
2018-09-04T16:24:10.570Z,30.7
2018-09-04T16:25:00.993Z,30.6
2018-09-04T16:25:50.517Z,30.6
2018-09-04T16:26:40.795Z,30.4
2018-09-04T16:27:32.187Z,30.3
2018-09-04T16:28:21.415Z,30.3
2018-09-04T16:29:11.772Z,30.2
2018-09-04T16:30:01.340Z,30.1
2018-09-04T16:30:51.639Z,29.9
2018-09-04T16:31:41.201Z,29.9
2018-09-04T16:32:32.239Z,29.8
2018-09-04T16:33:21.614Z,29.7
2018-09-04T16:34:11.869Z,29.6
2018-09-04T16:35:02.476Z,29.4
2018-09-04T16:35:52.265Z,29.3
2018-09-04T16:36:56.809Z,29.3
2018-09-04T16:37:31.677Z,29.1
2018-09-04T16:38:22.246Z,29
2018-09-04T16:39:12.086Z,28.9
2018-09-04T16:40:02.164Z,28.8
2018-09-04T16:40:52.471Z,28.7
2018-09-04T16:41:41.909Z,28.6
2018-09-04T16:42:32.338Z,28.4
2018-09-04T16:43:22.395Z,28.4
2018-09-04T16:44:12.462Z,28.3
2018-09-04T16:45:02.543Z,28.1
2018-09-04T16:45:52.326Z,28
2018-09-04T16:46:42.645Z,27.9
2018-09-04T16:48:23.291Z,27.8
2018-09-04T16:49:27.143Z,27.6
2018-09-04T16:50:02.646Z,27.5
2018-09-04T16:50:52.977Z,27.5
2018-09-04T16:51:43.553Z,27.4
2018-09-04T16:52:32.846Z,27.3
2018-09-04T16:53:23.436Z,27.2
2018-09-04T16:54:13.249Z,27.1
2018-09-04T16:55:03.831Z,27
2018-09-04T16:55:53.107Z,26.9
2018-09-04T16:56:43.672Z,26.9
2018-09-04T16:57:34.371Z,26.8
2018-09-04T16:58:23.575Z,26.7
2018-09-04T16:59:13.093Z,26.6
2018-09-04T17:00:03.720Z,26.5
2018-09-04T17:00:53.520Z,26.4
2018-09-04T17:01:44.406Z,26.3
2018-09-04T17:02:33.893Z,26.3
2018-09-04T17:03:24.008Z,26.2
2018-09-04T17:04:28.612Z,26.1
2018-09-04T17:05:04.410Z,26
2018-09-04T17:05:54.421Z,25.9
2018-09-04T17:06:44.216Z,25.9
2018-09-04T17:07:34.588Z,25.8
2018-09-04T17:08:24.655Z,25.7
2018-09-04T17:09:14.423Z,25.6
2018-09-04T17:10:04.213Z,25.6
2018-09-04T17:10:54.616Z,25.5
2018-09-04T17:11:44.364Z,25.4
2018-09-04T17:12:35.242Z,25.3
2018-09-04T17:13:24.806Z,25.3
2018-09-04T17:14:15.250Z,25.1
2018-09-04T17:15:04.604Z,25.1
2018-09-04T17:16:44.733Z,24.9
2018-09-04T17:17:50.219Z,24.9
2018-09-04T17:18:24.141Z,24.8
2018-09-04T17:19:15.395Z,24.8
2018-09-04T17:20:05.288Z,24.7
2018-09-04T17:20:55.121Z,24.6
2018-09-04T17:21:46.211Z,24.6
2018-09-04T17:22:35.460Z,24.5
2018-09-04T17:23:25.585Z,24.4
2018-09-04T17:24:15.585Z,24.3
2018-09-04T17:25:05.705Z,24.3
2018-09-04T17:25:55.858Z,24.3
2018-09-04T17:27:00.384Z,24.2
2018-09-04T17:27:35.577Z,24.1
2018-09-04T17:28:26.499Z,24.1
2018-09-04T17:29:16.216Z,24
2018-09-04T17:30:05.787Z,23.9
2018-09-04T17:30:56.615Z,23.9
2018-09-04T17:32:36.516Z,23.8
2018-09-04T17:33:26.011Z,23.7
2018-09-04T17:34:16.042Z,23.6
2018-09-04T17:35:06.134Z,23.6
2018-09-04T17:35:56.186Z,23.6
2018-09-04T17:36:45.994Z,23.5
2018-09-04T17:37:36.294Z,23.4
2018-09-04T17:38:26.855Z,23.4
2018-09-04T17:39:16.177Z,23.3
2018-09-04T17:40:21.174Z,23.3
2018-09-04T17:40:56.589Z,23.2
2018-09-04T17:41:46.639Z,23.2
2018-09-04T17:42:36.711Z,23.1
2018-09-04T17:43:26.491Z,23.1
2018-09-04T17:44:16.274Z,23
2018-09-04T17:45:06.907Z,22.9
2018-09-04T17:45:56.965Z,22.9
2018-09-04T17:46:46.764Z,22.9
2018-09-04T17:47:36.696Z,22.8
2018-09-04T17:48:27.171Z,22.8
2018-09-04T17:49:17.321Z,22.8
2018-09-04T17:50:07.302Z,22.7
2018-09-04T17:50:57.362Z,22.6
2018-09-04T17:51:47.140Z,22.6
2018-09-04T17:52:37.505Z,22.6
2018-09-04T17:53:27.580Z,22.5
2018-09-04T17:54:17.633Z,22.4
2018-09-04T17:55:07.420Z,22.4
2018-09-04T17:55:57.774Z,22.4
2018-09-04T17:56:47.527Z,22.3
2018-09-04T17:57:37.615Z,22.3
2018-09-04T17:58:27.685Z,22.3
2018-09-04T17:59:18.023Z,22.3
2018-09-04T18:00:07.792Z,22.2
2018-09-04T18:00:58.455Z,22.1
2018-09-04T18:01:48.210Z,22.1
2018-09-04T18:02:38.270Z,22.1
2018-09-04T18:03:28.354Z,22.1
2018-09-04T18:04:18.130Z,22
2018-09-04T18:05:08.206Z,21.9
2018-09-04T18:05:58.550Z,21.9
2018-09-04T18:06:48.324Z,21.9
2018-09-04T18:07:38.422Z,21.9
2018-09-04T18:08:28.762Z,21.8
2018-09-04T18:09:18.242Z,21.8
2018-09-04T18:10:08.934Z,21.8
2018-09-04T18:10:58.692Z,21.8
2018-09-04T18:11:49.044Z,21.7
2018-09-04T18:12:39.136Z,21.7
2018-09-04T18:13:29.159Z,21.6
2018-09-04T18:14:19.218Z,21.6
2018-09-04T18:15:09.512Z,21.6
2018-09-04T18:15:59.049Z,21.6
2018-09-04T18:16:49.384Z,21.5
2018-09-04T18:17:39.452Z,21.5
2018-09-04T18:18:29.223Z,21.5